sensor_id;sensor_type;location;lat;lon;timestamp;pressure;altitude;pressure_sealevel;temperature;humidity
51297;BME280;37380;45.186;9.792;2024-03-25T00:00:13;100359.91;;;7.01;61.38
51297;BME280;37380;45.186;9.792;2024-03-25T00:02:41;100357.84;;;6.96;61.72
51297;BME280;37380;45.186;9.792;2024-03-25T00:05:08;100351.94;;;7.09;61.67
51297;BME280;37380;45.186;9.792;2024-03-25T00:07:38;100340.75;;;7.23;60.02
51297;BME280;37380;45.186;9.792;2024-03-25T00:10:04;100350.22;;;6.91;61.79
51297;BME280;37380;45.186;9.792;2024-03-25T00:12:35;100348.09;;;6.81;62.42
51297;BME280;37380;45.186;9.792;2024-03-25T00:15:01;100352.09;;;6.79;63.40
51297;BME280;37380;45.186;9.792;2024-03-25T00:17:28;100353.34;;;6.78;63.83
51297;BME280;37380;45.186;9.792;2024-03-25T00:19:54;100353.16;;;6.82;63.67
51297;BME280;37380;45.186;9.792;2024-03-25T00:22:21;100360.34;;;6.74;63.75
51297;BME280;37380;45.186;9.792;2024-03-25T00:24:48;100370.44;;;6.57;64.23
51297;BME280;37380;45.186;9.792;2024-03-25T00:27:14;100362.22;;;6.62;63.56
51297;BME280;37380;45.186;9.792;2024-03-25T00:29:41;100358.84;;;6.73;64.73
51297;BME280;37380;45.186;9.792;2024-03-25T00:32:08;100364.78;;;6.66;62.45
51297;BME280;37380;45.186;9.792;2024-03-25T00:34:34;100359.44;;;6.42;63.55
51297;BME280;37380;45.186;9.792;2024-03-25T00:37:00;100357.00;;;6.50;62.80
51297;BME280;37380;45.186;9.792;2024-03-25T00:39:27;100358.50;;;6.31;63.66
51297;BME280;37380;45.186;9.792;2024-03-25T00:41:53;100359.31;;;6.17;64.48
51297;BME280;37380;45.186;9.792;2024-03-25T00:44:19;100359.59;;;6.19;63.61
51297;BME280;37380;45.186;9.792;2024-03-25T00:46:46;100368.06;;;6.30;62.85
51297;BME280;37380;45.186;9.792;2024-03-25T00:49:12;100367.03;;;6.27;62.92
51297;BME280;37380;45.186;9.792;2024-03-25T00:51:38;100361.13;;;6.20;63.91
51297;BME280;37380;45.186;9.792;2024-03-25T00:54:04;100367.41;;;6.20;63.57
51297;BME280;37380;45.186;9.792;2024-03-25T00:56:31;100358.94;;;6.09;64.07
51297;BME280;37380;45.186;9.792;2024-03-25T00:58:57;100361.69;;;6.24;64.10
51297;BME280;37380;45.186;9.792;2024-03-25T01:01:33;100354.69;;;6.28;63.96
51297;BME280;37380;45.186;9.792;2024-03-25T01:04:02;100361.00;;;6.29;65.23
51297;BME280;37380;45.186;9.792;2024-03-25T01:06:28;100355.34;;;6.38;65.23
51297;BME280;37380;45.186;9.792;2024-03-25T01:08:55;100364.06;;;6.51;64.82
51297;BME280;37380;45.186;9.792;2024-03-25T01:11:22;100364.28;;;6.67;64.18
51297;BME280;37380;45.186;9.792;2024-03-25T01:13:48;100362.00;;;6.66;63.99
51297;BME280;37380;45.186;9.792;2024-03-25T01:16:14;100354.69;;;6.63;65.30
51297;BME280;37380;45.186;9.792;2024-03-25T01:18:40;100353.09;;;6.56;64.78
51297;BME280;37380;45.186;9.792;2024-03-25T01:21:06;100353.50;;;6.49;65.50
51297;BME280;37380;45.186;9.792;2024-03-25T01:23:32;100355.91;;;6.42;64.80
51297;BME280;37380;45.186;9.792;2024-03-25T01:25:58;100353.19;;;6.47;64.95
51297;BME280;37380;45.186;9.792;2024-03-25T01:28:24;100352.66;;;6.23;64.51
51297;BME280;37380;45.186;9.792;2024-03-25T01:30:50;100348.44;;;5.49;66.50
51297;BME280;37380;45.186;9.792;2024-03-25T01:33:16;100349.41;;;5.61;67.43
51297;BME280;37380;45.186;9.792;2024-03-25T01:35:42;100349.94;;;5.94;65.86
51297;BME280;37380;45.186;9.792;2024-03-25T01:38:08;100344.97;;;5.83;65.78
51297;BME280;37380;45.186;9.792;2024-03-25T01:40:34;100352.81;;;5.70;65.70
51297;BME280;37380;45.186;9.792;2024-03-25T01:43:02;100358.22;;;5.06;67.71
51297;BME280;37380;45.186;9.792;2024-03-25T01:45:31;100361.56;;;5.25;69.22
51297;BME280;37380;45.186;9.792;2024-03-25T01:48:00;100366.91;;;5.43;69.04
51297;BME280;37380;45.186;9.792;2024-03-25T01:50:27;100369.75;;;5.34;69.27
51297;BME280;37380;45.186;9.792;2024-03-25T01:52:53;100365.97;;;5.31;67.75
51297;BME280;37380;45.186;9.792;2024-03-25T01:55:26;100374.91;;;5.26;67.34
51297;BME280;37380;45.186;9.792;2024-03-25T01:57:53;100369.09;;;5.39;66.67
51297;BME280;37380;45.186;9.792;2024-03-25T02:00:20;100371.66;;;5.42;64.89
51297;BME280;37380;45.186;9.792;2024-03-25T02:02:46;100368.72;;;5.75;63.26
51297;BME280;37380;45.186;9.792;2024-03-25T02:05:15;100366.53;;;5.65;62.52
51297;BME280;37380;45.186;9.792;2024-03-25T02:07:43;100363.94;;;5.90;61.29
51297;BME280;37380;45.186;9.792;2024-03-25T02:10:09;100368.63;;;5.84;59.91
51297;BME280;37380;45.186;9.792;2024-03-25T02:12:37;100369.13;;;5.54;61.85
51297;BME280;37380;45.186;9.792;2024-03-25T02:15:07;100363.97;;;5.61;61.15
51297;BME280;37380;45.186;9.792;2024-03-25T02:17:34;100368.06;;;5.36;63.18
51297;BME280;37380;45.186;9.792;2024-03-25T02:20:01;100366.25;;;5.48;61.10
51297;BME280;37380;45.186;9.792;2024-03-25T02:22:29;100367.28;;;5.36;61.64
51297;BME280;37380;45.186;9.792;2024-03-25T02:24:57;100363.00;;;5.79;55.47
51297;BME280;37380;45.186;9.792;2024-03-25T02:27:24;100360.06;;;5.97;54.18
51297;BME280;37380;45.186;9.792;2024-03-25T02:29:50;100354.19;;;6.09;53.99
51297;BME280;37380;45.186;9.792;2024-03-25T02:32:16;100345.91;;;6.09;53.61
51297;BME280;37380;45.186;9.792;2024-03-25T02:34:45;100353.72;;;6.11;54.11
51297;BME280;37380;45.186;9.792;2024-03-25T02:37:12;100355.84;;;6.01;54.41
51297;BME280;37380;45.186;9.792;2024-03-25T02:39:38;100340.22;;;5.98;55.35
51297;BME280;37380;45.186;9.792;2024-03-25T02:42:05;100337.94;;;5.82;55.56
51297;BME280;37380;45.186;9.792;2024-03-25T02:44:31;100344.41;;;5.79;56.57
51297;BME280;37380;45.186;9.792;2024-03-25T02:46:58;100344.81;;;5.72;57.70
51297;BME280;37380;45.186;9.792;2024-03-25T02:49:24;100341.38;;;5.63;59.32
51297;BME280;37380;45.186;9.792;2024-03-25T02:51:50;100336.03;;;5.59;60.07
51297;BME280;37380;45.186;9.792;2024-03-25T02:54:16;100335.31;;;5.59;61.30
51297;BME280;37380;45.186;9.792;2024-03-25T02:56:43;100335.00;;;5.57;60.68
51297;BME280;37380;45.186;9.792;2024-03-25T02:59:08;100339.13;;;5.61;61.77
51297;BME280;37380;45.186;9.792;2024-03-25T03:01:34;100336.03;;;5.59;61.26
51297;BME280;37380;45.186;9.792;2024-03-25T03:04:00;100337.19;;;5.67;61.63
51297;BME280;37380;45.186;9.792;2024-03-25T03:09:56;100338.69;;;5.83;61.60
51297;BME280;37380;45.186;9.792;2024-03-25T03:12:22;100327.75;;;5.74;61.26
51297;BME280;37380;45.186;9.792;2024-03-25T03:14:48;100327.28;;;5.75;61.80
51297;BME280;37380;45.186;9.792;2024-03-25T03:17:14;100329.19;;;5.69;62.40
51297;BME280;37380;45.186;9.792;2024-03-25T03:19:41;100328.91;;;5.67;61.92
51297;BME280;37380;45.186;9.792;2024-03-25T03:22:07;100322.81;;;5.63;62.73
51297;BME280;37380;45.186;9.792;2024-03-25T03:24:33;100316.41;;;5.86;61.96
51297;BME280;37380;45.186;9.792;2024-03-25T03:26:59;100321.16;;;5.71;61.72
51297;BME280;37380;45.186;9.792;2024-03-25T03:29:25;100322.03;;;5.77;61.47
51297;BME280;37380;45.186;9.792;2024-03-25T03:31:51;100324.53;;;5.61;61.77
51297;BME280;37380;45.186;9.792;2024-03-25T03:34:18;100318.53;;;5.62;61.96
51297;BME280;37380;45.186;9.792;2024-03-25T03:36:44;100323.13;;;5.51;62.50
51297;BME280;37380;45.186;9.792;2024-03-25T03:39:10;100313.59;;;5.52;62.67
51297;BME280;37380;45.186;9.792;2024-03-25T03:41:36;100317.38;;;5.54;62.81
51297;BME280;37380;45.186;9.792;2024-03-25T03:44:02;100309.59;;;5.53;62.99
51297;BME280;37380;45.186;9.792;2024-03-25T03:46:28;100307.09;;;5.55;64.06
51297;BME280;37380;45.186;9.792;2024-03-25T03:48:54;100317.50;;;5.45;64.57
51297;BME280;37380;45.186;9.792;2024-03-25T03:51:20;100321.69;;;5.40;65.32
51297;BME280;37380;45.186;9.792;2024-03-25T03:53:46;100324.66;;;5.37;65.31
51297;BME280;37380;45.186;9.792;2024-03-25T03:56:12;100333.38;;;5.50;65.95
51297;BME280;37380;45.186;9.792;2024-03-25T03:58:37;100336.81;;;5.45;65.69
51297;BME280;37380;45.186;9.792;2024-03-25T04:01:03;100331.28;;;5.45;67.05
51297;BME280;37380;45.186;9.792;2024-03-25T04:03:30;100341.78;;;5.26;67.59
51297;BME280;37380;45.186;9.792;2024-03-25T04:05:56;100345.44;;;5.09;67.63
51297;BME280;37380;45.186;9.792;2024-03-25T04:08:22;100345.38;;;5.18;67.96
51297;BME280;37380;45.186;9.792;2024-03-25T04:10:48;100346.44;;;5.35;66.90
51297;BME280;37380;45.186;9.792;2024-03-25T04:13:14;100348.63;;;5.45;66.83
51297;BME280;37380;45.186;9.792;2024-03-25T04:15:40;100352.63;;;5.30;66.68
51297;BME280;37380;45.186;9.792;2024-03-25T04:18:09;100359.72;;;5.07;68.26
51297;BME280;37380;45.186;9.792;2024-03-25T04:20:39;100360.47;;;4.93;68.81
51297;BME280;37380;45.186;9.792;2024-03-25T04:23:05;100356.91;;;4.78;68.59
51297;BME280;37380;45.186;9.792;2024-03-25T04:25:35;100357.09;;;4.74;69.35
51297;BME280;37380;45.186;9.792;2024-03-25T04:28:04;100365.47;;;4.56;70.02
51297;BME280;37380;45.186;9.792;2024-03-25T04:30:31;100366.44;;;4.53;69.66
51297;BME280;37380;45.186;9.792;2024-03-25T04:32:59;100360.09;;;4.38;69.34
51297;BME280;37380;45.186;9.792;2024-03-25T04:35:25;100355.06;;;4.13;70.53
51297;BME280;37380;45.186;9.792;2024-03-25T04:37:51;100363.75;;;4.12;71.04
51297;BME280;37380;45.186;9.792;2024-03-25T04:40:17;100361.19;;;4.08;71.89
51297;BME280;37380;45.186;9.792;2024-03-25T04:42:45;100355.97;;;4.10;71.82
51297;BME280;37380;45.186;9.792;2024-03-25T04:45:11;100350.88;;;4.18;70.98
51297;BME280;37380;45.186;9.792;2024-03-25T04:47:38;100351.69;;;4.09;74.52
51297;BME280;37380;45.186;9.792;2024-03-25T04:50:04;100355.50;;;4.35;74.02
51297;BME280;37380;45.186;9.792;2024-03-25T04:52:31;100371.81;;;4.24;73.44
51297;BME280;37380;45.186;9.792;2024-03-25T04:54:57;100381.28;;;4.32;73.68
51297;BME280;37380;45.186;9.792;2024-03-25T04:57:23;100384.13;;;4.38;73.18
51297;BME280;37380;45.186;9.792;2024-03-25T04:59:49;100381.59;;;4.25;73.31
51297;BME280;37380;45.186;9.792;2024-03-25T05:02:15;100383.72;;;3.97;74.61
51297;BME280;37380;45.186;9.792;2024-03-25T05:04:41;100386.00;;;4.08;75.10
51297;BME280;37380;45.186;9.792;2024-03-25T05:07:07;100396.44;;;3.95;74.50
51297;BME280;37380;45.186;9.792;2024-03-25T05:09:33;100403.78;;;3.98;74.98
51297;BME280;37380;45.186;9.792;2024-03-25T05:11:59;100402.53;;;4.08;73.63
51297;BME280;37380;45.186;9.792;2024-03-25T05:14:25;100419.47;;;3.74;74.07
51297;BME280;37380;45.186;9.792;2024-03-25T05:16:51;100425.22;;;3.94;74.06
51297;BME280;37380;45.186;9.792;2024-03-25T05:19:18;100423.28;;;3.76;74.00
51297;BME280;37380;45.186;9.792;2024-03-25T05:21:44;100421.63;;;3.70;75.07
51297;BME280;37380;45.186;9.792;2024-03-25T05:24:10;100416.03;;;3.88;74.00
51297;BME280;37380;45.186;9.792;2024-03-25T05:26:37;100428.09;;;4.41;73.16
51297;BME280;37380;45.186;9.792;2024-03-25T05:29:03;100430.13;;;4.32;72.65
51297;BME280;37380;45.186;9.792;2024-03-25T05:31:29;100426.88;;;4.33;69.77
51297;BME280;37380;45.186;9.792;2024-03-25T05:33:57;100433.50;;;4.59;70.90
51297;BME280;37380;45.186;9.792;2024-03-25T05:36:23;100432.41;;;5.04;68.68
51297;BME280;37380;45.186;9.792;2024-03-25T05:38:49;100430.25;;;5.47;67.68
51297;BME280;37380;45.186;9.792;2024-03-25T05:41:15;100433.03;;;5.61;66.29
51297;BME280;37380;45.186;9.792;2024-03-25T05:43:41;100440.16;;;5.53;64.79
51297;BME280;37380;45.186;9.792;2024-03-25T05:46:07;100442.63;;;5.51;65.21
51297;BME280;37380;45.186;9.792;2024-03-25T05:48:33;100447.88;;;5.49;65.19
51297;BME280;37380;45.186;9.792;2024-03-25T05:51:04;100444.78;;;4.94;67.28
51297;BME280;37380;45.186;9.792;2024-03-25T05:53:33;100448.47;;;4.91;68.13
51297;BME280;37380;45.186;9.792;2024-03-25T05:56:00;100458.66;;;5.00;67.96
51297;BME280;37380;45.186;9.792;2024-03-25T05:58:27;100463.81;;;5.07;67.83
51297;BME280;37380;45.186;9.792;2024-03-25T06:00:53;100460.09;;;4.95;67.77
51297;BME280;37380;45.186;9.792;2024-03-25T06:03:19;100456.31;;;5.07;68.11
51297;BME280;37380;45.186;9.792;2024-03-25T06:05:46;100462.81;;;5.19;67.78
51297;BME280;37380;45.186;9.792;2024-03-25T06:08:12;100462.47;;;5.26;66.46
51297;BME280;37380;45.186;9.792;2024-03-25T06:10:51;100453.34;;;5.34;66.29
51297;BME280;37380;45.186;9.792;2024-03-25T06:13:18;100457.84;;;5.47;65.94
51297;BME280;37380;45.186;9.792;2024-03-25T06:15:44;100460.13;;;5.48;65.19
51297;BME280;37380;45.186;9.792;2024-03-25T06:18:10;100465.19;;;5.64;65.59
51297;BME280;37380;45.186;9.792;2024-03-25T06:20:36;100463.09;;;5.74;64.07
51297;BME280;37380;45.186;9.792;2024-03-25T06:23:02;100462.59;;;5.84;62.53
51297;BME280;37380;45.186;9.792;2024-03-25T06:25:28;100454.47;;;6.59;60.78
51297;BME280;37380;45.186;9.792;2024-03-25T06:27:55;100449.59;;;6.89;57.87
51297;BME280;37380;45.186;9.792;2024-03-25T06:30:21;100448.63;;;7.32;56.46
51297;BME280;37380;45.186;9.792;2024-03-25T06:33:06;100450.00;;;7.42;54.88
51297;BME280;37380;45.186;9.792;2024-03-25T06:35:51;100448.44;;;8.24;53.84
51297;BME280;37380;45.186;9.792;2024-03-25T06:38:21;100445.72;;;9.09;51.92
51297;BME280;37380;45.186;9.792;2024-03-25T06:40:47;100451.66;;;8.43;53.66
51297;BME280;37380;45.186;9.792;2024-03-25T06:43:13;100451.59;;;9.33;54.44
51297;BME280;37380;45.186;9.792;2024-03-25T06:45:41;100454.25;;;9.81;50.70
51297;BME280;37380;45.186;9.792;2024-03-25T06:48:07;100448.94;;;10.10;49.14
51297;BME280;37380;45.186;9.792;2024-03-25T06:50:33;100451.44;;;9.86;48.96
51297;BME280;37380;45.186;9.792;2024-03-25T06:52:59;100452.47;;;9.78;49.15
51297;BME280;37380;45.186;9.792;2024-03-25T06:55:25;100449.91;;;9.63;50.41
51297;BME280;37380;45.186;9.792;2024-03-25T06:57:54;100449.84;;;9.41;50.83
51297;BME280;37380;45.186;9.792;2024-03-25T07:00:20;100451.47;;;9.00;51.61
51297;BME280;37380;45.186;9.792;2024-03-25T07:02:48;100457.69;;;8.78;52.93
51297;BME280;37380;45.186;9.792;2024-03-25T07:05:14;100460.34;;;9.09;52.79
51297;BME280;37380;45.186;9.792;2024-03-25T07:07:40;100467.19;;;9.14;52.50
51297;BME280;37380;45.186;9.792;2024-03-25T07:10:07;100463.47;;;9.28;52.29
51297;BME280;37380;45.186;9.792;2024-03-25T07:12:33;100466.50;;;9.30;51.92
51297;BME280;37380;45.186;9.792;2024-03-25T07:14:59;100459.34;;;9.12;51.84
51297;BME280;37380;45.186;9.792;2024-03-25T07:17:24;100465.66;;;9.07;52.89
51297;BME280;37380;45.186;9.792;2024-03-25T07:19:55;100460.59;;;9.06;52.66
51297;BME280;37380;45.186;9.792;2024-03-25T07:22:21;100469.94;;;9.03;52.18
51297;BME280;37380;45.186;9.792;2024-03-25T07:24:47;100467.44;;;9.16;53.30
51297;BME280;37380;45.186;9.792;2024-03-25T07:27:13;100473.91;;;9.55;53.40
51297;BME280;37380;45.186;9.792;2024-03-25T07:29:39;100472.75;;;10.39;52.04
51297;BME280;37380;45.186;9.792;2024-03-25T07:32:05;100470.72;;;10.45;50.96
51297;BME280;37380;45.186;9.792;2024-03-25T07:34:31;100476.78;;;10.49;50.93
51297;BME280;37380;45.186;9.792;2024-03-25T07:36:57;100476.28;;;10.45;50.55
51297;BME280;37380;45.186;9.792;2024-03-25T07:39:23;100471.09;;;10.99;48.79
51297;BME280;37380;45.186;9.792;2024-03-25T07:41:50;100466.16;;;10.37;50.36
51297;BME280;37380;45.186;9.792;2024-03-25T07:44:16;100478.06;;;10.43;50.28
51297;BME280;37380;45.186;9.792;2024-03-25T07:46:42;100483.38;;;10.13;51.81
51297;BME280;37380;45.186;9.792;2024-03-25T07:49:07;100476.03;;;10.32;51.03
51297;BME280;37380;45.186;9.792;2024-03-25T07:51:34;100478.56;;;10.47;51.64
51297;BME280;37380;45.186;9.792;2024-03-25T07:54:01;100482.09;;;10.42;51.68
51297;BME280;37380;45.186;9.792;2024-03-25T07:56:31;100467.94;;;10.34;52.19
51297;BME280;37380;45.186;9.792;2024-03-25T07:58:58;100474.28;;;10.29;53.47
51297;BME280;37380;45.186;9.792;2024-03-25T08:01:25;100476.31;;;10.29;53.14
51297;BME280;37380;45.186;9.792;2024-03-25T08:03:52;100493.50;;;10.27;53.47
51297;BME280;37380;45.186;9.792;2024-03-25T08:06:17;100486.41;;;10.37;53.99
51297;BME280;37380;45.186;9.792;2024-03-25T08:08:43;100496.78;;;10.59;53.91
51297;BME280;37380;45.186;9.792;2024-03-25T08:11:10;100495.28;;;10.58;53.36
51297;BME280;37380;45.186;9.792;2024-03-25T08:13:36;100495.72;;;10.84;53.22
51297;BME280;37380;45.186;9.792;2024-03-25T08:16:02;100494.94;;;10.89;53.20
51297;BME280;37380;45.186;9.792;2024-03-25T08:18:28;100489.16;;;11.50;52.24
51297;BME280;37380;45.186;9.792;2024-03-25T08:20:54;100490.25;;;11.25;53.28
51297;BME280;37380;45.186;9.792;2024-03-25T08:23:20;100495.09;;;11.82;53.63
51297;BME280;37380;45.186;9.792;2024-03-25T08:25:46;100484.84;;;12.31;54.55
51297;BME280;37380;45.186;9.792;2024-03-25T08:28:12;100488.22;;;11.83;52.44
51297;BME280;37380;45.186;9.792;2024-03-25T08:30:39;100482.38;;;11.86;51.96
51297;BME280;37380;45.186;9.792;2024-03-25T08:33:05;100473.81;;;12.14;51.73
51297;BME280;37380;45.186;9.792;2024-03-25T08:35:31;100481.72;;;11.69;54.13
51297;BME280;37380;45.186;9.792;2024-03-25T08:37:57;100482.50;;;12.05;53.86
51297;BME280;37380;45.186;9.792;2024-03-25T08:40:23;100482.50;;;12.05;53.81
51297;BME280;37380;45.186;9.792;2024-03-25T08:42:49;100471.47;;;12.18;53.27
51297;BME280;37380;45.186;9.792;2024-03-25T08:45:15;100483.50;;;12.07;53.70
51297;BME280;37380;45.186;9.792;2024-03-25T08:47:42;100484.41;;;12.21;54.71
51297;BME280;37380;45.186;9.792;2024-03-25T08:50:08;100480.66;;;12.72;52.52
51297;BME280;37380;45.186;9.792;2024-03-25T08:52:35;100471.19;;;12.27;54.19
51297;BME280;37380;45.186;9.792;2024-03-25T08:55:00;100475.19;;;13.10;53.08
51297;BME280;37380;45.186;9.792;2024-03-25T08:57:27;100468.97;;;12.44;54.41
51297;BME280;37380;45.186;9.792;2024-03-25T08:59:52;100474.41;;;12.37;54.56
51297;BME280;37380;45.186;9.792;2024-03-25T09:02:18;100466.03;;;12.37;55.22
51297;BME280;37380;45.186;9.792;2024-03-25T09:04:44;100474.19;;;12.29;55.14
51297;BME280;37380;45.186;9.792;2024-03-25T09:07:10;100466.78;;;12.61;55.68
51297;BME280;37380;45.186;9.792;2024-03-25T09:09:36;100465.31;;;13.27;53.62
51297;BME280;37380;45.186;9.792;2024-03-25T09:12:21;100464.13;;;13.60;51.96
51297;BME280;37380;45.186;9.792;2024-03-25T09:14:49;100456.66;;;13.68;51.92
51297;BME280;37380;45.186;9.792;2024-03-25T09:17:15;100456.31;;;13.72;53.24
51297;BME280;37380;45.186;9.792;2024-03-25T09:19:42;100457.50;;;14.27;53.31
51297;BME280;37380;45.186;9.792;2024-03-25T09:22:08;100454.22;;;14.09;52.22
51297;BME280;37380;45.186;9.792;2024-03-25T09:24:34;100450.69;;;13.59;55.01
51297;BME280;37380;45.186;9.792;2024-03-25T09:27:00;100456.09;;;13.70;52.45
51297;BME280;37380;45.186;9.792;2024-03-25T09:29:26;100455.56;;;13.71;53.21
51297;BME280;37380;45.186;9.792;2024-03-25T09:31:52;100457.78;;;14.42;53.16
51297;BME280;37380;45.186;9.792;2024-03-25T09:34:18;100457.91;;;13.86;52.55
51297;BME280;37380;45.186;9.792;2024-03-25T09:36:44;100451.34;;;14.15;52.22
51297;BME280;37380;45.186;9.792;2024-03-25T09:39:10;100446.69;;;13.86;52.48
51297;BME280;37380;45.186;9.792;2024-03-25T09:41:37;100449.97;;;13.71;52.56
51297;BME280;37380;45.186;9.792;2024-03-25T09:44:05;100453.22;;;14.07;52.87
51297;BME280;37380;45.186;9.792;2024-03-25T09:46:31;100448.88;;;14.25;52.37
51297;BME280;37380;45.186;9.792;2024-03-25T09:48:59;100452.41;;;14.57;51.77
51297;BME280;37380;45.186;9.792;2024-03-25T09:51:25;100446.59;;;14.55;53.55
51297;BME280;37380;45.186;9.792;2024-03-25T09:53:51;100445.53;;;14.84;55.13
51297;BME280;37380;45.186;9.792;2024-03-25T09:56:17;100451.66;;;15.35;50.17
51297;BME280;37380;45.186;9.792;2024-03-25T09:58:43;100439.69;;;15.47;49.34
51297;BME280;37380;45.186;9.792;2024-03-25T10:01:10;100437.25;;;14.65;50.91
51297;BME280;37380;45.186;9.792;2024-03-25T10:03:36;100436.38;;;14.97;50.41
51297;BME280;37380;45.186;9.792;2024-03-25T10:06:02;100424.72;;;14.66;51.70
51297;BME280;37380;45.186;9.792;2024-03-25T10:08:28;100429.38;;;14.77;50.12
51297;BME280;37380;45.186;9.792;2024-03-25T10:10:56;100421.31;;;14.29;49.90
51297;BME280;37380;45.186;9.792;2024-03-25T10:13:22;100419.00;;;14.33;51.31
51297;BME280;37380;45.186;9.792;2024-03-25T10:15:49;100409.25;;;14.21;50.37
51297;BME280;37380;45.186;9.792;2024-03-25T10:18:16;100406.72;;;14.49;48.93
51297;BME280;37380;45.186;9.792;2024-03-25T10:20:50;100402.63;;;14.37;50.25
51297;BME280;37380;45.186;9.792;2024-03-25T10:23:23;100398.44;;;14.56;50.65
51297;BME280;37380;45.186;9.792;2024-03-25T10:25:53;100395.91;;;15.05;48.41
51297;BME280;37380;45.186;9.792;2024-03-25T10:28:20;100398.56;;;15.24;49.21
51297;BME280;37380;45.186;9.792;2024-03-25T10:30:46;100392.97;;;15.71;48.72
51297;BME280;37380;45.186;9.792;2024-03-25T10:33:13;100395.81;;;15.58;45.59
51297;BME280;37380;45.186;9.792;2024-03-25T10:35:40;100393.22;;;15.60;45.85
51297;BME280;37380;45.186;9.792;2024-03-25T10:38:10;100383.88;;;14.84;47.02
51297;BME280;37380;45.186;9.792;2024-03-25T10:40:38;100382.69;;;14.66;46.35
51297;BME280;37380;45.186;9.792;2024-03-25T10:43:10;100387.66;;;14.87;45.55
51297;BME280;37380;45.186;9.792;2024-03-25T10:45:49;100381.13;;;15.18;46.66
51297;BME280;37380;45.186;9.792;2024-03-25T10:48:19;100381.22;;;15.25;45.82
51297;BME280;37380;45.186;9.792;2024-03-25T10:50:46;100369.44;;;15.74;47.39
51297;BME280;37380;45.186;9.792;2024-03-25T10:53:14;100366.19;;;15.49;44.40
51297;BME280;37380;45.186;9.792;2024-03-25T10:55:44;100374.34;;;15.00;44.31
51297;BME280;37380;45.186;9.792;2024-03-25T10:58:15;100362.41;;;15.33;44.65
51297;BME280;37380;45.186;9.792;2024-03-25T11:00:42;100361.69;;;15.87;47.05
51297;BME280;37380;45.186;9.792;2024-03-25T11:03:10;100360.91;;;15.87;44.33
51297;BME280;37380;45.186;9.792;2024-03-25T11:05:37;100361.72;;;15.54;43.67
51297;BME280;37380;45.186;9.792;2024-03-25T11:08:11;100360.22;;;15.94;43.48
51297;BME280;37380;45.186;9.792;2024-03-25T11:10:45;100353.78;;;15.65;42.63
51297;BME280;37380;45.186;9.792;2024-03-25T11:13:19;100356.81;;;15.88;41.94
51297;BME280;37380;45.186;9.792;2024-03-25T11:15:47;100357.06;;;16.46;40.64
51297;BME280;37380;45.186;9.792;2024-03-25T11:18:16;100354.13;;;16.03;39.18
51297;BME280;37380;45.186;9.792;2024-03-25T11:20:43;100349.13;;;16.09;39.68
51297;BME280;37380;45.186;9.792;2024-03-25T11:23:13;100345.00;;;16.59;39.61
51297;BME280;37380;45.186;9.792;2024-03-25T11:25:41;100348.06;;;16.40;37.12
51297;BME280;37380;45.186;9.792;2024-03-25T11:28:09;100346.78;;;16.49;36.78
51297;BME280;37380;45.186;9.792;2024-03-25T11:30:36;100337.59;;;16.20;36.77
51297;BME280;37380;45.186;9.792;2024-03-25T11:33:02;100335.06;;;16.58;36.82
51297;BME280;37380;45.186;9.792;2024-03-25T11:35:37;100331.53;;;16.37;33.97
51297;BME280;37380;45.186;9.792;2024-03-25T11:38:03;100337.66;;;16.28;33.21
51297;BME280;37380;45.186;9.792;2024-03-25T11:40:30;100325.59;;;16.76;33.13
51297;BME280;37380;45.186;9.792;2024-03-25T11:42:58;100325.38;;;16.66;36.47
51297;BME280;37380;45.186;9.792;2024-03-25T11:45:25;100321.75;;;16.58;38.77
51297;BME280;37380;45.186;9.792;2024-03-25T11:47:51;100308.44;;;16.95;38.14
51297;BME280;37380;45.186;9.792;2024-03-25T11:50:19;100317.72;;;16.18;36.91
51297;BME280;37380;45.186;9.792;2024-03-25T11:52:45;100314.81;;;16.31;38.11
51297;BME280;37380;45.186;9.792;2024-03-25T11:55:16;100305.16;;;16.11;38.05
51297;BME280;37380;45.186;9.792;2024-03-25T11:58:08;100298.41;;;16.14;35.30
51297;BME280;37380;45.186;9.792;2024-03-25T12:00:34;100300.56;;;16.01;35.04
51297;BME280;37380;45.186;9.792;2024-03-25T12:03:01;100300.94;;;16.26;35.69
51297;BME280;37380;45.186;9.792;2024-03-25T12:05:32;100286.41;;;15.86;31.64
51297;BME280;37380;45.186;9.792;2024-03-25T12:08:00;100294.00;;;16.27;33.30
51297;BME280;37380;45.186;9.792;2024-03-25T12:10:26;100292.78;;;16.14;36.16
51297;BME280;37380;45.186;9.792;2024-03-25T12:13:11;100287.47;;;16.32;35.83
51297;BME280;37380;45.186;9.792;2024-03-25T12:15:37;100280.84;;;15.93;36.16
51297;BME280;37380;45.186;9.792;2024-03-25T12:18:06;100277.75;;;16.04;36.03
51297;BME280;37380;45.186;9.792;2024-03-25T12:20:32;100271.84;;;15.87;33.26
51297;BME280;37380;45.186;9.792;2024-03-25T12:23:01;100274.19;;;16.04;33.95
51297;BME280;37380;45.186;9.792;2024-03-25T12:25:28;100271.91;;;15.95;29.99
51297;BME280;37380;45.186;9.792;2024-03-25T12:27:54;100263.31;;;16.00;27.88
51297;BME280;37380;45.186;9.792;2024-03-25T12:30:20;100257.88;;;16.31;30.64
51297;BME280;37380;45.186;9.792;2024-03-25T12:32:46;100258.31;;;16.06;31.13
51297;BME280;37380;45.186;9.792;2024-03-25T12:35:14;100260.72;;;16.02;30.70
51297;BME280;37380;45.186;9.792;2024-03-25T12:37:46;100254.63;;;15.91;31.77
51297;BME280;37380;45.186;9.792;2024-03-25T12:40:25;100243.88;;;16.10;31.80
51297;BME280;37380;45.186;9.792;2024-03-25T12:42:52;100245.97;;;16.45;32.58
51297;BME280;37380;45.186;9.792;2024-03-25T12:45:20;100243.66;;;16.36;32.30
51297;BME280;37380;45.186;9.792;2024-03-25T12:47:46;100234.78;;;16.53;34.93
51297;BME280;37380;45.186;9.792;2024-03-25T12:50:12;100229.97;;;16.68;33.25
51297;BME280;37380;45.186;9.792;2024-03-25T12:52:38;100220.19;;;16.54;32.49
51297;BME280;37380;45.186;9.792;2024-03-25T12:55:04;100221.78;;;16.86;33.78
51297;BME280;37380;45.186;9.792;2024-03-25T12:57:30;100222.88;;;16.75;34.27